createdAt,value
2022-08-20T00:01:02.336Z,25.13
2022-08-20T00:02:41.027Z,23.52
2022-08-20T00:04:15.149Z,23.52
2022-08-20T00:05:52.124Z,24.00
2022-08-20T00:07:31.157Z,22.75
2022-08-20T00:09:04.914Z,23.10
2022-08-20T00:10:43.897Z,23.88
2022-08-20T00:12:20.603Z,24.65
2022-08-20T00:13:57.065Z,22.15
2022-08-20T00:15:34.040Z,26.83
2022-08-20T00:17:07.454Z,24.02
2022-08-20T00:18:41.405Z,23.08
2022-08-20T00:20:14.773Z,22.85
2022-08-20T00:21:47.723Z,24.88
2022-08-20T00:23:22.819Z,26.23
2022-08-20T00:24:54.919Z,24.88
2022-08-20T00:26:29.321Z,24.90
2022-08-20T00:28:06.940Z,24.08
2022-08-20T00:29:39.948Z,23.83
2022-08-20T00:31:16.341Z,24.90
2022-08-20T00:32:55.003Z,27.73
2022-08-20T00:34:28.255Z,25.02
2022-08-20T00:37:40.308Z,26.60
2022-08-20T00:40:49.708Z,23.70
2022-08-20T00:42:24.240Z,22.90
2022-08-20T00:44:08.810Z,26.42
2022-08-20T00:45:41.915Z,26.67
2022-08-20T00:47:15.025Z,26.13
2022-08-20T00:48:51.833Z,26.98
2022-08-20T00:50:30.180Z,26.48
2022-08-20T00:52:07.876Z,24.45
2022-08-20T00:53:40.564Z,25.10
2022-08-20T00:55:14.132Z,26.35
2022-08-20T00:56:50.720Z,24.98
2022-08-20T00:58:25.785Z,26.10
2022-08-20T01:00:00.046Z,26.15
2022-08-20T01:01:34.453Z,24.95
2022-08-20T01:03:27.557Z,24.90
2022-08-20T01:06:32.925Z,27.15
2022-08-20T01:08:06.526Z,25.60
2022-08-20T01:09:57.952Z,25.45
2022-08-20T01:11:37.113Z,27.85
2022-08-20T01:13:12.540Z,25.27
2022-08-20T01:14:48.205Z,27.38
2022-08-20T01:16:26.710Z,27.60
2022-08-20T01:18:02.392Z,28.38
2022-08-20T01:19:41.789Z,26.02
2022-08-20T01:21:15.378Z,27.70
2022-08-20T01:23:11.959Z,26.25
2022-08-20T01:24:45.565Z,25.98
2022-08-20T01:26:24.065Z,26.58
2022-08-20T01:27:57.568Z,24.73
2022-08-20T01:29:41.686Z,24.58
2022-08-20T01:31:17.728Z,26.95
2022-08-20T01:32:51.993Z,28.55
2022-08-20T01:34:25.064Z,26.80
2022-08-20T01:35:58.036Z,28.42
2022-08-20T01:37:31.634Z,24.70
2022-08-20T01:39:08.934Z,24.38
2022-08-20T01:41:18.130Z,24.67
2022-08-20T01:43:00.750Z,24.92
2022-08-20T01:44:36.482Z,24.05
2022-08-20T01:46:10.232Z,25.90
2022-08-20T01:47:44.045Z,27.00
2022-08-20T01:49:23.119Z,25.73
2022-08-20T01:51:02.078Z,25.25
2022-08-20T01:52:42.304Z,24.80
2022-08-20T01:54:15.435Z,27.88
2022-08-20T01:55:47.479Z,27.23
2022-08-20T01:57:22.330Z,26.13
2022-08-20T01:58:59.144Z,26.95
2022-08-20T02:00:37.154Z,25.95
2022-08-20T02:02:11.897Z,24.20
2022-08-20T02:03:44.843Z,24.92
2022-08-20T02:05:18.494Z,26.70
2022-08-20T02:06:56.653Z,25.52
2022-08-20T02:08:33.651Z,23.48
2022-08-20T02:10:08.334Z,22.80
2022-08-20T02:11:40.527Z,23.52
2022-08-20T02:13:14.515Z,26.90
2022-08-20T02:14:52.191Z,24.20
2022-08-20T02:16:29.104Z,22.92
2022-08-20T02:18:05.742Z,23.60
2022-08-20T02:19:44.970Z,24.48
2022-08-20T02:21:18.444Z,24.42
2022-08-20T02:22:55.089Z,24.30
2022-08-20T02:24:28.261Z,23.05
2022-08-20T02:26:01.341Z,22.90
2022-08-20T02:27:33.511Z,23.50
2022-08-20T02:29:09.494Z,25.67
2022-08-20T02:30:46.912Z,25.52
2022-08-20T02:32:32.473Z,24.50
2022-08-20T02:34:18.446Z,27.73
2022-08-20T02:35:57.358Z,24.83
2022-08-20T02:37:31.165Z,24.17
2022-08-20T02:39:06.527Z,24.13
2022-08-20T02:40:40.826Z,24.08
2022-08-20T02:42:14.414Z,26.30
2022-08-20T02:43:47.492Z,28.50
2022-08-20T02:45:22.535Z,26.55
2022-08-20T02:46:57.125Z,24.17
2022-08-20T02:48:31.313Z,27.17
2022-08-20T02:50:07.766Z,26.75
2022-08-20T02:52:52.939Z,25.05
2022-08-20T02:54:26.171Z,26.73
2022-08-20T02:57:33.185Z,26.98
2022-08-20T02:59:06.668Z,26.95
2022-08-20T03:00:39.222Z,27.33
2022-08-20T03:02:13.785Z,28.52
2022-08-20T03:03:47.221Z,26.98
2022-08-20T03:05:19.469Z,27.00
2022-08-20T03:06:52.528Z,27.90
2022-08-20T03:08:26.794Z,27.23
2022-08-20T03:09:59.952Z,29.42
2022-08-20T03:11:33.276Z,27.23
2022-08-20T03:13:07.429Z,29.85
2022-08-20T03:14:40.356Z,25.52
2022-08-20T03:16:13.642Z,28.67
2022-08-20T03:19:21.179Z,27.08
2022-08-20T03:20:54.200Z,28.58
2022-08-20T03:22:27.236Z,28.65
2022-08-20T03:24:00.355Z,28.45
2022-08-20T03:25:33.669Z,28.60
2022-08-20T03:27:06.326Z,32.20
2022-08-20T03:28:40.998Z,28.40
2022-08-20T03:30:15.721Z,30.88
2022-08-20T03:31:48.715Z,27.63
2022-08-20T03:33:23.988Z,27.92
2022-08-20T03:34:55.973Z,30.02
2022-08-20T03:36:31.101Z,29.40
2022-08-20T03:38:09.114Z,27.95
2022-08-20T03:39:42.333Z,28.85
2022-08-20T03:42:48.197Z,28.42
2022-08-20T03:44:21.248Z,28.70
2022-08-20T03:45:54.383Z,27.88
2022-08-20T03:47:27.171Z,28.67
2022-08-20T03:49:01.547Z,30.88
2022-08-20T03:50:35.328Z,27.90
2022-08-20T03:52:07.427Z,28.85
2022-08-20T03:53:40.610Z,28.85
2022-08-20T03:56:45.704Z,29.42
2022-08-20T03:58:17.996Z,28.33
2022-08-20T03:59:54.851Z,30.80
2022-08-20T04:01:36.999Z,29.42
2022-08-20T04:03:19.276Z,27.80
2022-08-20T04:04:55.041Z,25.52
2022-08-20T04:06:29.199Z,25.23
2022-08-20T04:08:03.676Z,27.98
2022-08-20T04:09:37.500Z,28.80
2022-08-20T04:11:10.527Z,28.30
2022-08-20T04:12:51.358Z,29.02
2022-08-20T04:14:25.070Z,28.88
2022-08-20T04:16:03.592Z,27.50
2022-08-20T04:17:39.240Z,28.80
2022-08-20T04:19:11.177Z,29.17
2022-08-20T04:20:45.571Z,27.30
2022-08-20T04:22:18.533Z,27.30
2022-08-20T04:23:50.704Z,27.73
2022-08-20T04:25:23.954Z,29.20
2022-08-20T04:26:58.037Z,27.02
2022-08-20T04:28:31.742Z,25.80
2022-08-20T04:30:05.359Z,26.50
2022-08-20T04:31:38.394Z,25.08
2022-08-20T04:33:11.457Z,24.58
2022-08-20T04:34:44.638Z,27.02
2022-08-20T04:36:21.864Z,25.90
2022-08-20T04:38:00.876Z,23.38
2022-08-20T04:39:33.080Z,23.85
2022-08-20T04:41:06.626Z,26.20
2022-08-20T04:42:39.221Z,26.50
2022-08-20T04:44:13.354Z,23.35
2022-08-20T04:45:45.859Z,26.10
2022-08-20T04:47:24.652Z,24.73
2022-08-20T04:49:08.669Z,26.58
2022-08-20T04:50:43.564Z,24.58
2022-08-20T04:52:18.080Z,24.67
2022-08-20T04:53:53.751Z,25.73
2022-08-20T04:55:27.025Z,25.92
2022-08-20T04:57:01.489Z,26.67
2022-08-20T04:58:37.100Z,27.52
2022-08-20T05:00:14.267Z,29.27
2022-08-20T05:01:47.346Z,25.80
2022-08-20T05:03:20.674Z,27.40
2022-08-20T05:04:53.675Z,27.08
2022-08-20T05:06:29.497Z,29.17
2022-08-20T05:08:03.355Z,26.50
2022-08-20T05:09:43.820Z,26.55
2022-08-20T05:11:33.635Z,25.92
2022-08-20T05:13:10.635Z,26.33
2022-08-20T05:14:42.642Z,24.55
2022-08-20T05:16:17.600Z,26.90
2022-08-20T05:17:57.545Z,28.30
2022-08-20T05:19:30.650Z,25.92
2022-08-20T05:21:05.854Z,26.05
2022-08-20T05:22:38.930Z,25.63
2022-08-20T05:24:13.261Z,26.98
2022-08-20T05:25:48.114Z,27.70
2022-08-20T05:27:24.942Z,28.30
2022-08-20T05:28:59.472Z,24.73
2022-08-20T05:30:34.139Z,25.08
2022-08-20T05:32:07.723Z,28.00
2022-08-20T05:33:39.883Z,26.60
2022-08-20T05:35:12.887Z,26.05
2022-08-20T05:36:49.163Z,25.67
2022-08-20T05:38:25.142Z,26.15
2022-08-20T05:39:59.521Z,25.08
2022-08-20T05:41:36.310Z,29.63
2022-08-20T05:43:09.031Z,26.58
2022-08-20T05:44:42.091Z,26.75
2022-08-20T05:46:16.652Z,27.83
2022-08-20T05:47:49.471Z,29.23
2022-08-20T05:49:29.437Z,28.02
2022-08-20T05:51:02.346Z,29.50
2022-08-20T05:52:35.369Z,29.02
2022-08-20T05:54:08.555Z,27.13
2022-08-20T05:57:19.317Z,28.05
2022-08-20T05:58:52.294Z,27.63
2022-08-20T06:00:25.431Z,29.75
2022-08-20T06:03:48.823Z,29.98
2022-08-20T06:05:21.002Z,29.67
2022-08-20T06:06:56.549Z,29.98
2022-08-20T06:08:29.566Z,31.27
2022-08-20T06:10:02.908Z,30.10
2022-08-20T06:11:37.593Z,32.38
2022-08-20T06:13:14.065Z,32.22
2022-08-20T06:14:47.453Z,30.15
2022-08-20T06:17:58.387Z,33.40
2022-08-20T06:19:33.203Z,30.08
2022-08-20T06:21:06.693Z,32.78
2022-08-20T06:22:39.781Z,31.23
2022-08-20T06:24:12.796Z,29.20
2022-08-20T06:25:45.173Z,31.08
2022-08-20T06:27:19.960Z,31.45
2022-08-20T06:28:53.962Z,29.13
2022-08-20T06:30:27.291Z,28.45
2022-08-20T06:33:34.412Z,28.55
2022-08-20T06:35:10.005Z,32.53
2022-08-20T06:36:42.057Z,31.02
2022-08-20T06:38:15.012Z,31.17
2022-08-20T06:39:48.074Z,30.23
2022-08-20T06:41:21.077Z,29.15
2022-08-20T06:42:57.491Z,29.95
2022-08-20T06:44:31.120Z,30.25
2022-08-20T06:46:06.459Z,28.10
2022-08-20T06:47:41.993Z,29.20
2022-08-20T06:49:14.925Z,29.58
2022-08-20T06:50:47.913Z,26.50
2022-08-20T06:52:28.619Z,27.05
2022-08-20T06:54:14.110Z,26.23
2022-08-20T06:55:51.159Z,27.02
2022-08-20T06:57:24.884Z,28.25
2022-08-20T06:58:59.214Z,30.75
2022-08-20T07:00:33.398Z,27.52
2022-08-20T07:02:06.594Z,26.40
2022-08-20T07:05:15.900Z,24.25
2022-08-20T07:06:51.779Z,25.13
2022-08-20T07:08:24.828Z,27.05
2022-08-20T07:10:01.623Z,23.50
2022-08-20T07:11:35.296Z,25.35
2022-08-20T07:13:08.552Z,24.10
2022-08-20T07:14:42.902Z,24.00
2022-08-20T07:16:15.994Z,23.25
2022-08-20T07:18:00.729Z,24.58
2022-08-20T07:19:34.603Z,24.83
2022-08-20T07:21:07.732Z,23.95
2022-08-20T07:24:14.292Z,25.88
2022-08-20T07:27:23.445Z,25.15
2022-08-20T07:28:56.795Z,25.50
2022-08-20T07:30:57.065Z,25.77
2022-08-20T07:32:39.443Z,22.77
2022-08-20T07:34:13.671Z,25.92
2022-08-20T07:35:48.830Z,22.77
2022-08-20T07:37:23.807Z,23.23
2022-08-20T07:38:57.194Z,20.25
2022-08-20T07:40:32.166Z,22.17
2022-08-20T07:42:07.253Z,21.50
2022-08-20T07:43:41.075Z,18.92
2022-08-20T07:45:16.107Z,17.85
2022-08-20T07:46:50.490Z,20.92
2022-08-20T07:48:31.262Z,21.35
2022-08-20T07:50:06.956Z,22.30
2022-08-20T07:51:40.321Z,18.95
2022-08-20T07:53:13.300Z,20.05
2022-08-20T07:54:46.268Z,21.48
2022-08-20T07:56:22.468Z,21.23
2022-08-20T07:58:00.265Z,19.73
2022-08-20T07:59:33.280Z,20.25
2022-08-20T08:01:07.703Z,20.60
2022-08-20T08:02:42.447Z,20.73
2022-08-20T08:04:16.082Z,22.73
2022-08-20T08:05:51.854Z,20.33
2022-08-20T08:07:27.011Z,20.60
2022-08-20T08:09:03.968Z,21.20
2022-08-20T08:10:37.585Z,20.73
2022-08-20T08:12:12.315Z,19.25
2022-08-20T08:13:45.425Z,23.35
2022-08-20T08:16:55.113Z,22.70
2022-08-20T08:18:34.643Z,23.88
2022-08-20T08:20:09.599Z,21.77
2022-08-20T08:21:44.207Z,22.52
2022-08-20T08:23:31.628Z,19.88
2022-08-20T08:25:05.896Z,21.58
2022-08-20T08:26:39.049Z,22.55
2022-08-20T08:29:45.780Z,24.42
2022-08-20T08:31:18.733Z,20.52
2022-08-20T08:33:09.206Z,20.48
2022-08-20T08:34:48.145Z,19.30
2022-08-20T08:36:21.111Z,17.95
2022-08-20T08:37:54.636Z,19.45
2022-08-20T08:39:34.645Z,21.45
2022-08-20T08:41:16.614Z,18.85
2022-08-20T08:42:58.143Z,19.02
2022-08-20T08:44:36.734Z,19.70
2022-08-20T08:46:12.724Z,16.83
2022-08-20T08:47:46.716Z,19.13
2022-08-20T08:49:23.110Z,18.75
2022-08-20T08:50:58.596Z,20.38
2022-08-20T08:52:35.348Z,18.80
2022-08-20T08:54:09.461Z,18.10
2022-08-20T08:55:42.776Z,18.88
2022-08-20T08:57:16.390Z,19.48
2022-08-20T08:58:49.737Z,21.33
2022-08-20T09:00:23.925Z,21.02
2022-08-20T09:01:59.708Z,21.50
2022-08-20T09:03:34.922Z,19.23
2022-08-20T09:05:17.704Z,19.70
2022-08-20T09:06:54.455Z,19.27
2022-08-20T09:08:31.838Z,19.02
2022-08-20T09:10:06.116Z,21.52
2022-08-20T09:11:48.378Z,19.90
2022-08-20T09:13:21.375Z,18.80
2022-08-20T09:14:54.544Z,17.63
2022-08-20T09:16:37.375Z,20.33
2022-08-20T09:18:22.041Z,19.70
2022-08-20T09:19:55.101Z,18.42
2022-08-20T09:23:02.479Z,18.15
2022-08-20T09:24:35.573Z,18.50
2022-08-20T09:27:42.892Z,20.35
2022-08-20T09:29:16.839Z,20.05
2022-08-20T09:30:50.014Z,19.55
2022-08-20T09:32:26.092Z,20.35
2022-08-20T09:33:59.704Z,19.85
2022-08-20T09:35:32.770Z,19.98
2022-08-20T09:38:40.452Z,18.35
2022-08-20T09:40:13.754Z,19.55
2022-08-20T09:41:49.156Z,21.10
2022-08-20T09:44:55.903Z,18.20
2022-08-20T09:46:29.107Z,19.20
2022-08-20T09:48:02.158Z,17.30
2022-08-20T09:49:37.248Z,15.35
2022-08-20T09:51:10.533Z,17.35
2022-08-20T09:52:47.101Z,21.05
2022-08-20T09:54:29.965Z,17.33
2022-08-20T09:56:03.304Z,15.15
2022-08-20T09:57:36.643Z,17.77
2022-08-20T09:59:13.099Z,18.08
2022-08-20T10:00:46.248Z,18.65
2022-08-20T10:02:19.306Z,16.30
2022-08-20T10:05:25.772Z,17.57
2022-08-20T10:06:59.167Z,20.20
2022-08-20T10:08:32.435Z,18.38
2022-08-20T10:10:09.069Z,16.55
2022-08-20T10:11:42.346Z,18.00
2022-08-20T10:13:15.682Z,16.00
2022-08-20T10:14:49.511Z,17.90
2022-08-20T10:17:57.285Z,18.13
2022-08-20T10:19:32.302Z,18.60
2022-08-20T10:21:10.695Z,18.02
2022-08-20T10:22:43.899Z,18.17
2022-08-20T10:24:17.020Z,18.88
2022-08-20T10:27:24.375Z,17.20
2022-08-20T10:30:30.362Z,15.40
2022-08-20T10:33:43.591Z,18.73
2022-08-20T10:35:16.843Z,16.73
2022-08-20T10:36:50.405Z,20.13
2022-08-20T10:38:23.482Z,19.73
2022-08-20T10:41:31.222Z,20.85
2022-08-20T10:43:04.411Z,17.67
2022-08-20T10:44:37.587Z,17.83
2022-08-20T10:46:10.986Z,22.02
2022-08-20T10:47:44.677Z,19.25
2022-08-20T10:49:16.783Z,19.05
2022-08-20T10:50:50.008Z,18.48
2022-08-20T10:52:24.670Z,18.90
2022-08-20T10:53:57.790Z,19.27
2022-08-20T10:57:06.010Z,18.27
2022-08-20T10:58:39.908Z,18.92
2022-08-20T11:00:18.296Z,20.40
2022-08-20T11:01:51.508Z,18.60
2022-08-20T11:03:24.737Z,19.50
2022-08-20T11:04:58.215Z,18.30
2022-08-20T11:06:31.287Z,22.33
2022-08-20T11:09:37.913Z,17.70
2022-08-20T11:11:11.059Z,18.80
2022-08-20T11:12:46.531Z,19.40
2022-08-20T11:14:19.701Z,19.42
2022-08-20T11:17:29.293Z,18.85
2022-08-20T11:19:02.353Z,19.05
2022-08-20T11:22:09.658Z,18.65
2022-08-20T11:23:42.786Z,18.40
2022-08-20T11:26:50.379Z,17.77
2022-08-20T11:28:31.125Z,18.40
2022-08-20T11:30:10.461Z,19.25
2022-08-20T11:31:43.648Z,19.58
2022-08-20T11:33:16.722Z,19.00
2022-08-20T11:34:51.511Z,18.98
2022-08-20T11:36:26.383Z,18.90
2022-08-20T11:38:00.405Z,19.02
2022-08-20T11:39:33.599Z,21.67
2022-08-20T11:41:07.140Z,20.10
2022-08-20T11:42:58.389Z,19.58
2022-08-20T11:44:35.294Z,19.58
2022-08-20T11:46:08.380Z,20.25
2022-08-20T11:49:14.276Z,19.77
2022-08-20T11:52:20.716Z,20.63
2022-08-20T11:53:55.647Z,19.67
2022-08-20T11:55:30.420Z,20.98
2022-08-20T11:57:04.429Z,19.67
2022-08-20T11:58:37.487Z,19.40
2022-08-20T12:00:15.647Z,23.00
2022-08-20T12:02:03.074Z,19.13
2022-08-20T12:03:36.892Z,22.95
2022-08-20T12:05:11.544Z,21.27
2022-08-20T12:06:44.599Z,19.67
2022-08-20T12:08:25.184Z,19.85
2022-08-20T12:10:01.083Z,21.75
2022-08-20T12:13:07.585Z,20.10
2022-08-20T12:14:40.126Z,18.98
2022-08-20T12:16:14.504Z,20.20
2022-08-20T12:17:47.545Z,21.42
2022-08-20T12:20:53.757Z,19.05
2022-08-20T12:22:27.478Z,20.52
2022-08-20T12:24:00.516Z,22.17
2022-08-20T12:27:11.304Z,25.80
2022-08-20T12:28:44.703Z,22.20
2022-08-20T12:30:20.750Z,21.83
2022-08-20T12:31:55.200Z,23.33
2022-08-20T12:33:28.404Z,21.67
2022-08-20T12:35:01.735Z,20.80
2022-08-20T12:36:34.777Z,21.15
2022-08-20T12:39:43.425Z,20.85
2022-08-20T12:41:16.528Z,19.90
2022-08-20T12:44:22.801Z,20.65
2022-08-20T12:45:55.813Z,21.33
2022-08-20T12:47:32.623Z,20.55
2022-08-20T12:49:05.740Z,20.70
2022-08-20T12:59:44.818Z,11.77
2022-08-20T13:07:02.309Z,12.43
2022-08-20T13:08:35.377Z,11.13
2022-08-20T13:11:42.676Z,10.43
2022-08-20T13:14:54.150Z,12.50
2022-08-20T13:18:04.845Z,12.73
2022-08-20T13:19:39.637Z,15.93
2022-08-20T13:21:12.721Z,12.68
2022-08-20T13:24:20.167Z,16.25
2022-08-20T13:27:26.496Z,17.13
2022-08-20T13:30:37.300Z,15.95
2022-08-20T13:32:10.644Z,14.48
2022-08-20T13:33:43.639Z,14.65
2022-08-20T13:35:16.892Z,10.02
2022-08-20T13:36:49.913Z,10.68
2022-08-20T13:38:24.837Z,9.23
2022-08-20T13:39:59.585Z,9.98
2022-08-20T13:41:32.737Z,9.82
2022-08-20T13:44:40.995Z,11.73
2022-08-20T13:46:14.016Z,12.68
2022-08-20T13:47:47.361Z,10.10
2022-08-20T13:49:20.374Z,10.18
2022-08-20T13:50:53.393Z,9.13
2022-08-20T13:52:28.490Z,8.07
2022-08-20T13:54:02.970Z,9.68
2022-08-20T13:55:38.558Z,9.02
2022-08-20T13:57:15.389Z,7.28
2022-08-20T13:58:48.408Z,7.05
2022-08-20T14:02:07.434Z,8.02
2022-08-20T14:03:40.728Z,8.85
2022-08-20T14:05:17.814Z,7.65
2022-08-20T14:06:52.284Z,7.82
2022-08-20T14:08:25.642Z,8.82
2022-08-20T14:10:01.876Z,9.18
2022-08-20T14:11:34.975Z,11.23
2022-08-20T14:13:11.183Z,9.95
2022-08-20T14:14:46.454Z,10.27
2022-08-20T14:16:25.251Z,12.13
2022-08-20T14:18:00.806Z,13.27
2022-08-20T14:19:33.797Z,12.88
2022-08-20T14:22:40.453Z,15.93
2022-08-20T14:24:13.527Z,14.27
2022-08-20T14:27:29.059Z,12.45
2022-08-20T14:29:04.337Z,16.38
2022-08-20T14:30:37.293Z,15.43
2022-08-20T14:33:44.777Z,13.98
2022-08-20T14:35:18.186Z,14.50
2022-08-20T14:36:51.231Z,15.55
2022-08-20T14:38:24.605Z,17.27
2022-08-20T14:40:00.314Z,15.40
2022-08-20T14:41:34.859Z,19.27
2022-08-20T14:43:07.961Z,15.73
2022-08-20T14:46:37.510Z,15.40
2022-08-20T14:48:10.677Z,10.93
2022-08-20T14:49:44.309Z,8.98
2022-08-20T14:51:17.265Z,8.02
2022-08-20T14:52:50.602Z,9.65
2022-08-20T14:54:23.723Z,8.05
2022-08-20T14:57:30.254Z,8.15
2022-08-20T14:59:03.251Z,8.43
2022-08-20T15:00:36.450Z,7.72
2022-08-20T15:02:12.472Z,6.97
2022-08-20T15:03:45.673Z,8.10
2022-08-20T15:05:18.974Z,7.55
2022-08-20T15:06:52.063Z,6.88
2022-08-20T15:08:28.842Z,7.35
2022-08-20T15:10:05.138Z,6.90
2022-08-20T15:11:39.968Z,7.72
2022-08-20T15:13:14.345Z,6.72
2022-08-20T15:14:47.998Z,7.78
2022-08-20T15:16:22.027Z,7.82
2022-08-20T15:21:01.645Z,8.90
2022-08-20T15:22:34.639Z,8.40
2022-08-20T15:25:52.433Z,7.50
2022-08-20T15:27:27.104Z,8.20
2022-08-20T15:29:01.500Z,9.43
2022-08-20T15:30:34.812Z,9.30
2022-08-20T15:32:08.574Z,8.18
2022-08-20T15:33:42.441Z,8.05
2022-08-20T15:35:15.470Z,7.03
2022-08-20T15:36:48.354Z,8.10
2022-08-20T15:38:21.410Z,7.90
2022-08-20T15:41:30.343Z,9.03
2022-08-20T15:43:08.229Z,7.55
2022-08-20T15:44:43.162Z,8.20
2022-08-20T15:46:16.175Z,7.97
2022-08-20T15:49:24.423Z,7.57
2022-08-20T15:51:29.145Z,7.70
2022-08-20T15:53:06.334Z,8.57
2022-08-20T15:54:40.260Z,7.45
2022-08-20T15:56:30.891Z,7.97
2022-08-20T15:58:14.703Z,7.75
2022-08-20T16:00:03.920Z,8.38
2022-08-20T16:01:48.556Z,10.15
2022-08-20T16:04:00.625Z,8.40
2022-08-20T16:05:44.266Z,9.60
2022-08-20T16:07:22.982Z,9.52
2022-08-20T16:09:12.544Z,9.93
2022-08-20T16:10:54.401Z,10.15
2022-08-20T16:12:35.772Z,8.40
2022-08-20T16:14:15.764Z,8.27
2022-08-20T16:15:51.041Z,9.95
2022-08-20T16:17:33.718Z,10.57
2022-08-20T16:19:08.434Z,9.63
2022-08-20T16:20:43.437Z,9.02
2022-08-20T16:22:21.605Z,8.48
2022-08-20T16:23:55.439Z,7.63
2022-08-20T16:25:37.316Z,7.88
2022-08-20T16:27:19.615Z,8.88
2022-08-20T16:29:04.355Z,8.05
2022-08-20T16:30:44.614Z,8.18
2022-08-20T16:32:32.933Z,8.35
2022-08-20T16:34:33.062Z,9.52
2022-08-20T16:36:11.934Z,7.65
2022-08-20T16:37:51.824Z,7.05
2022-08-20T16:39:28.487Z,6.10
2022-08-20T16:41:07.922Z,7.68
2022-08-20T16:42:44.672Z,8.05
2022-08-20T16:44:28.742Z,6.93
2022-08-20T16:46:04.357Z,6.75
2022-08-20T16:47:41.149Z,5.75
2022-08-20T16:49:15.251Z,5.35
2022-08-20T16:50:58.353Z,6.05
2022-08-20T16:52:31.597Z,6.00
2022-08-20T16:54:05.154Z,5.30
2022-08-20T16:55:38.193Z,4.65
2022-08-20T16:57:16.589Z,5.95
2022-08-20T16:58:50.243Z,5.55
2022-08-20T17:00:29.368Z,4.65
2022-08-20T17:02:07.329Z,5.82
2022-08-20T17:03:52.210Z,5.97
2022-08-20T17:05:27.970Z,4.95
2022-08-20T17:07:02.758Z,5.32
2022-08-20T17:08:49.677Z,4.38
2022-08-20T17:10:26.392Z,5.32
2022-08-20T17:12:17.665Z,6.43
2022-08-20T17:13:50.724Z,5.93
2022-08-20T17:15:25.977Z,4.45
2022-08-20T17:16:58.956Z,4.47
2022-08-20T17:18:34.240Z,5.00
2022-08-20T17:20:20.041Z,5.47
2022-08-20T17:21:54.059Z,6.07
2022-08-20T17:23:27.625Z,5.60
2022-08-20T17:25:00.658Z,4.75
2022-08-20T17:28:16.185Z,6.05
2022-08-20T17:29:51.813Z,6.00
2022-08-20T17:31:38.952Z,6.00
2022-08-20T17:33:24.693Z,6.05
2022-08-20T17:34:59.950Z,6.43
2022-08-20T17:36:34.698Z,9.02
2022-08-20T17:38:08.065Z,7.95
2022-08-20T17:39:47.774Z,7.32
2022-08-20T17:41:24.334Z,8.45
2022-08-20T17:43:01.476Z,8.55
2022-08-20T17:44:37.167Z,7.80
2022-08-20T17:46:16.237Z,10.07
2022-08-20T17:47:48.813Z,9.25
2022-08-20T17:49:35.901Z,8.95
2022-08-20T17:51:15.961Z,9.95
2022-08-20T17:52:53.239Z,9.65
2022-08-20T17:54:32.786Z,9.27
2022-08-20T17:56:19.431Z,10.05
2022-08-20T17:57:58.747Z,8.70
2022-08-20T18:00:00.212Z,10.52
2022-08-20T18:01:30.061Z,11.32
2022-08-20T18:03:12.240Z,9.43
2022-08-20T18:04:46.641Z,11.88
2022-08-20T18:06:28.466Z,9.50
2022-08-20T18:08:16.565Z,8.60
2022-08-20T18:09:57.703Z,9.27
2022-08-20T18:11:35.440Z,9.90
2022-08-20T18:13:14.959Z,7.93
2022-08-20T18:14:58.623Z,9.70
2022-08-20T18:16:40.278Z,9.23
2022-08-20T18:18:24.481Z,11.88
2022-08-20T18:20:25.079Z,10.15
2022-08-20T18:22:08.518Z,9.23
2022-08-20T18:23:48.375Z,9.13
2022-08-20T18:25:36.538Z,10.35
2022-08-20T18:27:14.952Z,10.45
2022-08-20T18:28:53.675Z,10.13
2022-08-20T18:30:27.459Z,9.75
2022-08-20T18:32:03.182Z,10.07
2022-08-20T18:33:38.423Z,11.35
2022-08-20T18:35:18.805Z,8.13
2022-08-20T18:36:56.887Z,8.98
2022-08-20T18:38:31.418Z,9.68
2022-08-20T18:40:17.484Z,9.52
2022-08-20T18:41:59.122Z,10.13
2022-08-20T18:43:32.752Z,9.05
2022-08-20T18:45:07.566Z,9.48
2022-08-20T18:46:54.115Z,9.50
2022-08-20T18:48:27.121Z,8.02
2022-08-20T18:50:16.380Z,8.82
2022-08-20T18:51:51.533Z,8.73
2022-08-20T18:53:33.838Z,8.50
2022-08-20T18:55:12.878Z,9.55
2022-08-20T18:56:45.846Z,8.75
2022-08-20T18:58:30.735Z,10.48
2022-08-20T19:00:11.762Z,10.27
2022-08-20T19:01:48.637Z,10.18
2022-08-20T19:03:27.784Z,10.20
2022-08-20T19:05:06.624Z,8.77
2022-08-20T19:06:45.743Z,9.68
2022-08-20T19:08:22.198Z,8.27
2022-08-20T19:10:27.512Z,8.27
2022-08-20T19:12:30.935Z,7.93
2022-08-20T19:14:30.628Z,9.07
2022-08-20T19:16:08.351Z,7.82
2022-08-20T19:17:52.974Z,8.52
2022-08-20T19:19:29.573Z,7.93
2022-08-20T19:21:06.485Z,7.90
2022-08-20T19:22:49.848Z,8.95
2022-08-20T19:24:27.324Z,8.65
2022-08-20T19:26:02.828Z,7.60
2022-08-20T19:27:38.759Z,7.82
2022-08-20T19:29:17.162Z,7.57
2022-08-20T19:30:50.385Z,12.30
2022-08-20T19:34:19.642Z,10.13
2022-08-20T19:35:53.617Z,8.93
2022-08-20T19:39:25.600Z,8.23
2022-08-20T19:41:11.039Z,9.18
2022-08-20T19:42:46.422Z,9.82
2022-08-20T19:44:32.215Z,9.50
2022-08-20T19:46:05.404Z,8.38
2022-08-20T19:49:21.194Z,12.07
2022-08-20T19:51:02.265Z,7.70
2022-08-20T19:52:56.214Z,8.70
2022-08-20T19:56:06.833Z,8.25
2022-08-20T19:57:40.000Z,8.80
2022-08-20T20:00:54.006Z,8.15
2022-08-20T20:02:31.067Z,8.60
2022-08-20T20:04:06.601Z,8.25
2022-08-20T20:05:51.073Z,9.10
2022-08-20T20:07:27.629Z,8.20
2022-08-20T20:09:03.238Z,8.43
2022-08-20T20:10:37.702Z,8.07
2022-08-20T20:12:22.822Z,8.57
2022-08-20T20:14:03.449Z,8.30
2022-08-20T20:15:38.833Z,8.43
2022-08-20T20:17:15.031Z,8.65
2022-08-20T20:19:09.297Z,9.05
2022-08-20T20:20:57.133Z,8.38
2022-08-20T20:22:33.488Z,8.60
2022-08-20T20:24:07.167Z,8.85
2022-08-20T20:25:43.004Z,9.38
2022-08-20T20:27:21.851Z,10.98
2022-08-20T20:29:01.996Z,9.82
2022-08-20T20:30:38.275Z,8.23
2022-08-20T20:32:19.602Z,8.60
2022-08-20T20:33:55.981Z,9.48
2022-08-20T20:35:31.868Z,9.20
2022-08-20T20:37:07.524Z,10.57
2022-08-20T20:38:54.959Z,10.93
2022-08-20T20:40:30.586Z,10.18
2022-08-20T20:42:11.620Z,10.13
2022-08-20T20:43:44.805Z,8.98
2022-08-20T20:46:58.020Z,9.90
2022-08-20T20:48:41.370Z,10.43
2022-08-20T20:50:14.502Z,8.80
2022-08-20T20:53:47.447Z,10.18
2022-08-20T20:55:28.218Z,9.55
2022-08-20T20:57:05.692Z,8.80
2022-08-20T20:58:37.717Z,10.82
2022-08-20T21:00:14.052Z,9.55
2022-08-20T21:01:50.071Z,10.98
2022-08-20T21:03:25.043Z,9.68
2022-08-20T21:04:59.249Z,11.93
2022-08-20T21:06:32.508Z,9.55
2022-08-20T21:08:09.048Z,9.93
2022-08-20T21:09:43.228Z,9.95
2022-08-20T21:11:16.532Z,10.65
2022-08-20T21:12:52.886Z,9.98
2022-08-20T21:14:26.119Z,12.75
2022-08-20T21:15:59.258Z,11.73
2022-08-20T21:19:16.135Z,11.35
2022-08-20T21:20:51.638Z,12.05
2022-08-20T21:22:24.763Z,10.02
2022-08-20T21:24:02.559Z,11.35
2022-08-20T21:25:36.340Z,11.75
2022-08-20T21:27:13.126Z,11.32
2022-08-20T21:28:47.404Z,12.40
2022-08-20T21:30:22.423Z,9.88
2022-08-20T21:31:56.216Z,9.82
2022-08-20T21:33:29.619Z,9.10
2022-08-20T21:35:07.326Z,10.18
2022-08-20T21:36:40.693Z,10.05
2022-08-20T21:38:18.172Z,11.43
2022-08-20T21:39:51.375Z,13.52
2022-08-20T21:43:06.072Z,9.85
2022-08-20T21:44:38.587Z,12.27
2022-08-20T21:46:24.839Z,13.80
2022-08-20T21:47:58.437Z,13.60
2022-08-20T21:49:32.396Z,12.48
2022-08-20T21:51:07.049Z,12.57
2022-08-20T21:52:42.366Z,12.55
2022-08-20T21:54:19.381Z,12.60
2022-08-20T21:55:52.655Z,13.63
2022-08-20T21:57:29.748Z,13.48
2022-08-20T21:59:05.175Z,13.52
2022-08-20T22:00:50.094Z,14.55
2022-08-20T22:02:25.300Z,12.38
2022-08-20T22:03:58.527Z,14.93
2022-08-20T22:05:31.711Z,14.48
2022-08-20T22:08:39.500Z,14.38
2022-08-20T22:10:12.863Z,15.40
2022-08-20T22:11:48.567Z,14.38
2022-08-20T22:13:25.618Z,16.58
2022-08-20T22:14:58.779Z,14.55
2022-08-20T22:18:06.056Z,14.45
2022-08-20T22:21:16.572Z,13.27
2022-08-20T22:22:51.053Z,10.80
2022-08-20T22:24:25.489Z,11.85
2022-08-20T22:25:58.603Z,11.88
2022-08-20T22:27:31.669Z,11.85
2022-08-20T22:29:07.051Z,10.38
2022-08-20T22:30:42.382Z,15.40
2022-08-20T22:32:15.802Z,11.75
2022-08-20T22:33:50.650Z,11.93
2022-08-20T22:36:59.404Z,11.38
2022-08-20T22:38:33.931Z,10.80
2022-08-20T22:40:07.123Z,11.68
2022-08-20T22:43:14.427Z,13.02
2022-08-20T22:44:47.438Z,11.80
2022-08-20T22:46:20.879Z,12.57
2022-08-20T22:47:54.094Z,12.10
2022-08-20T22:51:30.923Z,12.73
2022-08-20T22:53:04.127Z,12.70
2022-08-20T22:56:21.607Z,11.88
2022-08-20T22:57:55.783Z,11.45
2022-08-20T22:59:29.805Z,12.18
2022-08-20T23:01:05.197Z,14.80
2022-08-20T23:02:41.294Z,14.20
2022-08-20T23:04:20.498Z,11.63